createdAt,value
2023-08-12T00:00:12.768Z,15.93
2023-08-12T00:02:41.789Z,12.80
2023-08-12T00:05:12.171Z,11.73
2023-08-12T00:07:43.682Z,11.40
2023-08-12T00:10:13.683Z,10.93
2023-08-12T00:12:42.041Z,12.47
2023-08-12T00:15:11.898Z,12.03
2023-08-12T00:17:42.971Z,13.43
2023-08-12T00:20:13.766Z,13.93
2023-08-12T00:22:46.459Z,11.00
2023-08-12T00:25:15.052Z,10.77
2023-08-12T00:27:43.403Z,7.00
2023-08-12T00:30:12.251Z,10.90
2023-08-12T00:32:42.191Z,9.77
2023-08-12T00:35:10.947Z,11.50
2023-08-12T00:37:39.142Z,11.97
2023-08-12T00:40:10.397Z,10.80
2023-08-12T00:42:38.636Z,10.90
2023-08-12T00:45:12.444Z,7.57
2023-08-12T00:47:40.864Z,9.50
2023-08-12T00:50:11.324Z,7.53
2023-08-12T00:52:39.981Z,12.83
2023-08-12T00:55:10.378Z,8.07
2023-08-12T00:57:38.767Z,6.73
2023-08-12T01:00:09.283Z,6.80
2023-08-12T01:02:37.810Z,5.37
2023-08-12T01:05:06.886Z,11.07
2023-08-12T01:07:35.538Z,7.90
2023-08-12T01:10:03.978Z,10.57
2023-08-12T01:12:39.050Z,10.40
2023-08-12T01:15:11.522Z,14.93
2023-08-12T01:17:43.690Z,11.73
2023-08-12T01:20:14.145Z,11.50
2023-08-12T01:22:44.230Z,15.10
2023-08-12T01:25:14.220Z,8.13
2023-08-12T01:27:42.513Z,12.00
2023-08-12T01:30:12.208Z,11.93
2023-08-12T01:32:45.428Z,7.80
2023-08-12T01:35:19.718Z,8.93
2023-08-12T01:37:48.873Z,8.97
2023-08-12T01:40:20.551Z,8.13
2023-08-12T01:42:50.326Z,11.70
2023-08-12T01:45:20.486Z,14.20
2023-08-12T01:47:52.329Z,10.47
2023-08-12T01:50:22.822Z,9.90
2023-08-12T01:52:51.101Z,10.17
2023-08-12T01:55:21.184Z,11.97
2023-08-12T01:57:49.382Z,10.03
2023-08-12T02:00:18.473Z,14.13
2023-08-12T02:02:48.370Z,10.57
2023-08-12T02:05:17.063Z,13.97
2023-08-12T02:07:46.560Z,7.77
2023-08-12T02:10:16.334Z,7.17
2023-08-12T02:12:45.907Z,11.03
2023-08-12T02:15:14.333Z,11.43
2023-08-12T02:17:42.694Z,10.80
2023-08-12T02:20:11.785Z,12.10
2023-08-12T02:22:40.350Z,12.37
2023-08-12T02:25:09.882Z,11.63
2023-08-12T02:27:38.101Z,10.57
2023-08-12T02:30:09.163Z,11.40
2023-08-12T02:32:37.552Z,11.60
2023-08-12T02:35:06.165Z,9.30
2023-08-12T02:37:34.455Z,10.03
2023-08-12T02:40:05.857Z,11.23
2023-08-12T02:42:34.220Z,11.30
2023-08-12T02:45:02.666Z,12.80
2023-08-12T02:47:32.353Z,14.63
2023-08-12T02:50:00.540Z,16.63
2023-08-12T02:52:29.030Z,15.13
2023-08-12T02:54:57.539Z,16.20
2023-08-12T02:57:25.798Z,17.63
2023-08-12T02:59:54.279Z,17.00
2023-08-12T03:02:22.625Z,15.67
2023-08-12T03:04:52.353Z,11.57
2023-08-12T03:07:20.629Z,14.63
2023-08-12T03:09:49.043Z,12.43
2023-08-12T03:12:17.250Z,15.43
2023-08-12T03:14:45.653Z,13.37
2023-08-12T03:17:14.254Z,15.37
2023-08-12T03:19:42.652Z,16.00
2023-08-12T03:22:12.375Z,17.23
2023-08-12T03:24:40.782Z,12.93
2023-08-12T03:27:09.106Z,15.63
2023-08-12T03:29:37.464Z,15.40
2023-08-12T03:32:06.270Z,12.63
2023-08-12T03:34:34.626Z,15.93
2023-08-12T03:37:02.834Z,13.87
2023-08-12T03:39:32.807Z,12.53
2023-08-12T03:42:01.030Z,16.30
2023-08-12T03:44:29.370Z,11.43
2023-08-12T03:46:57.674Z,16.27
2023-08-12T03:49:25.927Z,12.47
2023-08-12T03:51:54.269Z,12.73
2023-08-12T03:54:22.648Z,16.50
2023-08-12T03:56:52.358Z,13.17
2023-08-12T03:59:20.816Z,14.60
2023-08-12T04:01:49.206Z,12.13
2023-08-12T04:04:17.464Z,10.00
2023-08-12T04:06:45.771Z,8.57
2023-08-12T04:09:14.063Z,7.87
2023-08-12T04:11:43.022Z,8.13
2023-08-12T04:14:12.608Z,6.70
2023-08-12T04:16:41.473Z,6.13
2023-08-12T04:19:10.014Z,6.60
2023-08-12T04:21:38.397Z,4.73
2023-08-12T04:24:07.372Z,4.13
2023-08-12T04:26:35.619Z,4.17
2023-08-12T04:29:03.957Z,4.20
2023-08-12T04:31:33.897Z,3.30
2023-08-12T04:34:02.209Z,3.20
2023-08-12T04:36:30.474Z,2.60
2023-08-12T04:38:58.877Z,2.70
2023-08-12T04:41:27.114Z,2.80
2023-08-12T04:43:55.623Z,3.57
2023-08-12T04:46:24.365Z,2.53
2023-08-12T04:48:54.047Z,2.50
2023-08-12T04:51:22.302Z,2.83
2023-08-12T04:53:50.825Z,2.73
2023-08-12T04:56:19.379Z,2.97
2023-08-12T04:58:47.563Z,2.83
2023-08-12T05:01:16.013Z,2.90
2023-08-12T05:03:44.307Z,3.10
2023-08-12T05:06:13.810Z,3.57
2023-08-12T05:08:42.103Z,4.07
2023-08-12T05:11:10.379Z,3.50
2023-08-12T05:13:38.563Z,3.73
2023-08-12T05:16:07.222Z,4.27
2023-08-12T05:18:35.487Z,4.77
2023-08-12T05:21:04.205Z,4.73
2023-08-12T05:23:34.052Z,5.40
2023-08-12T05:26:02.249Z,5.63
2023-08-12T05:28:30.467Z,8.30
2023-08-12T05:30:58.893Z,8.40
2023-08-12T05:33:27.225Z,11.97
2023-08-12T05:35:55.912Z,10.93
2023-08-12T05:38:24.552Z,7.33
2023-08-12T05:40:54.131Z,10.77
2023-08-12T05:43:22.359Z,10.47
2023-08-12T05:45:51.071Z,8.03
2023-08-12T05:48:19.342Z,9.97
2023-08-12T05:50:47.580Z,9.57
2023-08-12T05:53:16.144Z,9.77
2023-08-12T05:55:44.417Z,9.27
2023-08-12T05:58:13.973Z,9.27
2023-08-12T06:00:46.556Z,11.63
2023-08-12T06:03:15.556Z,11.93
2023-08-12T06:05:47.081Z,10.00
2023-08-12T06:08:15.718Z,11.20
2023-08-12T06:10:44.239Z,13.10
2023-08-12T06:13:13.891Z,13.63
2023-08-12T06:15:42.409Z,11.37
2023-08-12T06:18:11.321Z,9.60
2023-08-12T06:20:39.685Z,6.10
2023-08-12T06:23:07.975Z,4.83
2023-08-12T06:25:37.499Z,4.40
2023-08-12T06:28:06.379Z,4.80
2023-08-12T06:30:36.033Z,7.93
2023-08-12T06:33:04.584Z,7.43
2023-08-12T06:35:32.855Z,8.53
2023-08-12T06:38:01.793Z,9.70
2023-08-12T06:40:31.966Z,9.50
2023-08-12T06:43:00.186Z,9.33
2023-08-12T06:45:28.619Z,8.10
2023-08-12T06:47:58.509Z,11.23
2023-08-12T06:50:26.888Z,9.40
2023-08-12T06:52:55.259Z,14.50
2023-08-12T06:55:23.728Z,11.97
2023-08-12T06:57:51.991Z,17.83
2023-08-12T07:00:20.204Z,10.83
2023-08-12T07:02:48.538Z,14.13
2023-08-12T07:05:18.422Z,15.73
2023-08-12T07:07:46.589Z,14.93
2023-08-12T07:10:14.880Z,16.07
2023-08-12T07:12:43.107Z,19.20
2023-08-12T07:15:13.120Z,14.13
2023-08-12T07:17:42.027Z,17.50
2023-08-12T07:20:10.865Z,13.97
2023-08-12T07:22:40.731Z,15.77
2023-08-12T07:25:09.731Z,15.47
2023-08-12T07:27:37.976Z,14.23
2023-08-12T07:30:07.369Z,10.80
2023-08-12T07:32:35.669Z,9.97
2023-08-12T07:35:03.932Z,13.23
2023-08-12T07:37:32.232Z,9.20
2023-08-12T07:40:02.001Z,15.53
2023-08-12T07:42:30.321Z,10.03
2023-08-12T07:44:58.615Z,8.53
2023-08-12T07:47:27.189Z,9.10
2023-08-12T07:49:55.418Z,6.67
2023-08-12T07:52:23.699Z,6.77
2023-08-12T07:54:52.051Z,6.63
2023-08-12T07:57:25.299Z,6.03
2023-08-12T07:59:53.785Z,4.97
2023-08-12T08:02:22.068Z,4.63
2023-08-12T08:04:50.502Z,5.70
2023-08-12T08:07:19.081Z,2.83
2023-08-12T08:09:47.308Z,2.97
2023-08-12T08:12:15.820Z,4.87
2023-08-12T08:14:45.660Z,3.73
2023-08-12T08:17:14.017Z,2.83
2023-08-12T08:19:42.405Z,3.23
2023-08-12T08:22:11.159Z,4.50
2023-08-12T08:24:39.887Z,5.27
2023-08-12T08:27:08.589Z,9.17
2023-08-12T08:29:37.027Z,3.33
2023-08-12T08:32:07.274Z,2.70
2023-08-12T08:34:35.738Z,3.77
2023-08-12T08:37:04.066Z,2.50
2023-08-12T08:39:32.732Z,2.43
2023-08-12T08:42:01.626Z,5.47
2023-08-12T08:44:32.735Z,3.83
2023-08-12T08:47:01.588Z,5.33
2023-08-12T08:49:33.081Z,3.33
2023-08-12T08:52:02.594Z,2.83
2023-08-12T08:54:30.946Z,4.30
2023-08-12T08:57:04.011Z,4.93
2023-08-12T08:59:37.086Z,3.43
2023-08-12T09:02:06.824Z,4.30
2023-08-12T09:04:37.163Z,3.87
2023-08-12T09:07:06.301Z,3.13
2023-08-12T09:09:36.453Z,6.77
2023-08-12T09:12:07.357Z,2.93
2023-08-12T09:14:36.525Z,3.73
2023-08-12T09:17:05.255Z,4.93
2023-08-12T09:19:33.495Z,7.53
2023-08-12T09:22:05.629Z,6.83
2023-08-12T09:24:34.149Z,5.40
2023-08-12T09:27:03.014Z,4.37
2023-08-12T09:29:32.705Z,2.60
2023-08-12T09:32:14.479Z,4.43
2023-08-12T09:34:49.844Z,4.50
2023-08-12T09:37:20.633Z,4.93
2023-08-12T09:39:49.892Z,3.47
2023-08-12T09:42:18.603Z,2.75
2023-08-12T09:44:47.691Z,5.93
2023-08-12T09:47:16.024Z,2.67
2023-08-12T09:49:44.220Z,4.73
2023-08-12T09:52:12.931Z,4.70
2023-08-12T09:54:44.868Z,3.03
2023-08-12T09:57:15.782Z,5.57
2023-08-12T09:59:45.445Z,2.37
2023-08-12T10:02:19.846Z,5.10
2023-08-12T10:04:51.945Z,3.90
2023-08-12T10:07:21.388Z,2.77
2023-08-12T10:09:51.550Z,3.60
2023-08-12T10:12:20.782Z,5.28
2023-08-12T10:14:50.744Z,1.98
2023-08-12T10:17:37.018Z,2.47
2023-08-12T10:20:10.182Z,3.50
2023-08-12T10:22:41.165Z,3.03
2023-08-12T10:25:11.690Z,3.50
2023-08-12T10:27:40.065Z,9.00
2023-08-12T10:30:10.463Z,5.03
2023-08-12T10:32:39.793Z,3.60
2023-08-12T10:35:09.546Z,3.80
2023-08-12T10:37:38.033Z,3.22
2023-08-12T10:40:08.603Z,5.45
2023-08-12T10:42:45.347Z,4.90
2023-08-12T10:45:14.757Z,4.22
2023-08-12T10:47:50.457Z,1.98
2023-08-12T10:50:23.300Z,6.03
2023-08-12T10:52:55.326Z,3.22
2023-08-12T10:55:25.288Z,2.25
2023-08-12T10:57:57.596Z,3.97
2023-08-12T11:00:27.384Z,2.65
2023-08-12T11:02:57.392Z,3.50
2023-08-12T11:05:26.499Z,3.25
2023-08-12T11:07:59.917Z,6.20
2023-08-12T11:10:31.936Z,3.10
2023-08-12T11:13:04.466Z,4.68
2023-08-12T11:15:34.854Z,5.07
2023-08-12T11:18:05.683Z,4.72
2023-08-12T11:20:34.509Z,4.28
2023-08-12T11:23:03.204Z,3.20
2023-08-12T11:25:33.019Z,2.05
2023-08-12T11:28:06.670Z,2.92
2023-08-12T11:30:35.288Z,2.42
2023-08-12T11:33:05.054Z,2.70
2023-08-12T11:35:33.402Z,4.30
2023-08-12T11:38:04.618Z,5.28
2023-08-12T11:40:33.056Z,6.45
2023-08-12T11:43:01.278Z,4.20
2023-08-12T11:45:31.116Z,1.63
2023-08-12T11:47:59.625Z,4.32
2023-08-12T11:50:29.151Z,3.58
2023-08-12T11:52:59.938Z,4.57
2023-08-12T11:55:28.690Z,3.90
2023-08-12T11:57:57.028Z,4.20
2023-08-12T12:00:28.372Z,4.75
2023-08-12T12:02:59.121Z,1.45
2023-08-12T12:05:30.942Z,3.67
2023-08-12T12:08:00.771Z,5.28
2023-08-12T12:10:34.356Z,4.25
2023-08-12T12:13:06.810Z,4.00
2023-08-12T12:15:56.665Z,1.58
2023-08-12T12:18:28.093Z,2.17
2023-08-12T12:20:58.212Z,4.07
2023-08-12T12:23:31.585Z,2.47
2023-08-12T12:26:02.030Z,4.00
2023-08-12T12:28:30.815Z,2.38
2023-08-12T12:30:59.397Z,3.72
2023-08-12T12:33:31.537Z,1.52
2023-08-12T12:36:01.254Z,2.58
2023-08-12T12:38:31.578Z,4.47
2023-08-12T12:41:00.704Z,3.83
2023-08-12T12:43:28.934Z,2.97
2023-08-12T12:45:57.262Z,3.30
2023-08-12T12:48:25.855Z,3.50
2023-08-12T12:50:55.459Z,3.30
2023-08-12T12:53:23.763Z,2.33
2023-08-12T12:55:52.863Z,4.03
2023-08-12T12:58:23.558Z,3.87
2023-08-12T13:00:51.920Z,2.37
2023-08-12T13:03:20.564Z,3.17
2023-08-12T13:05:48.919Z,2.70
2023-08-12T13:08:18.655Z,5.07
2023-08-12T13:10:47.474Z,2.43
2023-08-12T13:13:16.918Z,3.53
2023-08-12T13:15:45.328Z,4.13
2023-08-12T13:18:14.288Z,4.13
2023-08-12T13:20:42.513Z,3.13
2023-08-12T13:23:10.754Z,3.07
2023-08-12T13:25:41.105Z,4.73
2023-08-12T13:28:09.541Z,2.80
2023-08-12T13:30:39.266Z,3.70
2023-08-12T13:33:07.848Z,7.57
2023-08-12T13:35:36.069Z,3.97
2023-08-12T13:38:04.560Z,4.23
2023-08-12T13:40:33.290Z,6.13
2023-08-12T13:43:03.126Z,2.03
2023-08-12T13:45:31.361Z,5.07
2023-08-12T13:47:59.800Z,6.07
2023-08-12T13:50:28.823Z,3.60
2023-08-12T13:52:57.027Z,4.63
2023-08-12T13:55:25.615Z,4.87
2023-08-12T13:57:54.492Z,5.20
2023-08-12T14:00:25.792Z,4.93
2023-08-12T14:02:55.234Z,2.97
2023-08-12T14:05:23.723Z,5.27
2023-08-12T14:07:52.020Z,3.33
2023-08-12T14:10:20.560Z,3.17
2023-08-12T14:12:51.976Z,2.93
2023-08-12T14:15:21.455Z,6.90
2023-08-12T14:18:09.792Z,2.60
2023-08-12T14:20:38.120Z,3.47
2023-08-12T14:23:06.591Z,5.20
2023-08-12T14:25:34.783Z,2.93
2023-08-12T14:28:04.116Z,5.33
2023-08-12T14:30:32.585Z,3.77
2023-08-12T14:33:01.106Z,4.87
2023-08-12T14:35:30.826Z,5.37
2023-08-12T14:37:59.070Z,2.60
2023-08-12T14:40:27.387Z,4.53
2023-08-12T14:42:55.818Z,6.73
2023-08-12T14:45:24.226Z,5.43
2023-08-12T14:47:52.556Z,11.63
2023-08-12T14:50:21.088Z,5.82
2023-08-12T14:52:50.726Z,3.67
2023-08-12T14:55:19.087Z,6.67
2023-08-12T14:57:47.446Z,3.47
2023-08-12T15:00:16.699Z,3.40
2023-08-12T15:02:45.012Z,5.40
2023-08-12T15:05:13.498Z,5.53
2023-08-12T15:07:41.870Z,6.43
2023-08-12T15:10:12.468Z,5.35
2023-08-12T15:12:41.469Z,5.57
2023-08-12T15:15:10.162Z,6.47
2023-08-12T15:17:38.396Z,7.30
2023-08-12T15:20:07.963Z,6.03
2023-08-12T15:22:36.250Z,4.27
2023-08-12T15:25:04.677Z,6.63
2023-08-12T15:27:34.672Z,5.37
2023-08-12T15:30:03.075Z,4.27
2023-08-12T15:32:32.332Z,2.70
2023-08-12T15:35:00.998Z,2.87
2023-08-12T15:37:29.988Z,4.50
2023-08-12T15:39:58.207Z,2.70
2023-08-12T15:42:26.659Z,3.60
2023-08-12T15:44:56.394Z,8.13
2023-08-12T15:47:24.630Z,3.77
2023-08-12T15:49:53.063Z,5.03
2023-08-12T15:52:21.501Z,4.07
2023-08-12T15:54:49.742Z,5.63
2023-08-12T15:57:18.215Z,3.33
2023-08-12T15:59:47.000Z,3.23
2023-08-12T16:02:17.135Z,5.37
2023-08-12T16:04:45.941Z,5.17
2023-08-12T16:07:14.230Z,8.07
2023-08-12T16:09:42.582Z,4.77
2023-08-12T16:12:11.466Z,2.50
2023-08-12T16:14:44.904Z,6.93
2023-08-12T16:17:13.367Z,2.97
2023-08-12T16:19:46.431Z,5.70
2023-08-12T16:22:15.503Z,3.27
2023-08-12T16:24:53.291Z,4.80
2023-08-12T16:27:24.756Z,5.50
2023-08-12T16:29:55.831Z,2.50
2023-08-12T16:32:24.134Z,3.90
2023-08-12T16:34:53.980Z,2.67
2023-08-12T16:37:22.411Z,10.90
2023-08-12T16:39:52.886Z,7.83
2023-08-12T16:42:23.045Z,6.23
2023-08-12T16:44:52.482Z,5.33
2023-08-12T16:47:20.775Z,4.60
2023-08-12T16:49:49.139Z,3.40
2023-08-12T16:52:18.950Z,6.10
2023-08-12T16:54:47.117Z,3.37
2023-08-12T16:57:15.514Z,3.67
2023-08-12T16:59:43.705Z,6.00
2023-08-12T17:02:12.316Z,2.70
2023-08-12T17:04:41.518Z,6.73
2023-08-12T17:07:09.846Z,4.47
2023-08-12T17:09:39.605Z,4.57
2023-08-12T17:12:09.673Z,6.83
2023-08-12T17:14:37.885Z,4.90
2023-08-12T17:17:06.207Z,3.03
2023-08-12T17:19:36.545Z,4.43
2023-08-12T17:22:05.223Z,6.10
2023-08-12T17:24:34.168Z,7.80
2023-08-12T17:27:03.967Z,5.50
2023-08-12T17:29:32.408Z,6.60
2023-08-12T17:32:00.638Z,6.23
2023-08-12T17:34:28.887Z,6.47
2023-08-12T17:36:57.258Z,8.10
2023-08-12T17:39:25.726Z,5.33
2023-08-12T17:41:54.242Z,10.70
2023-08-12T17:44:24.026Z,5.80
2023-08-12T17:46:52.276Z,5.80
2023-08-12T17:49:20.934Z,5.57
2023-08-12T17:51:49.105Z,4.53
2023-08-12T17:54:17.375Z,8.27
2023-08-12T17:56:45.657Z,4.80
2023-08-12T17:59:14.016Z,6.53
2023-08-12T18:01:43.612Z,5.60
2023-08-12T18:04:11.964Z,7.63
2023-08-12T18:06:40.540Z,7.93
2023-08-12T18:09:09.526Z,5.40
2023-08-12T18:11:38.078Z,9.93
2023-08-12T18:14:06.592Z,5.70
2023-08-12T18:16:35.646Z,10.70
2023-08-12T18:19:05.781Z,9.30
2023-08-12T18:21:33.982Z,4.67
2023-08-12T18:24:02.316Z,7.77
2023-08-12T18:26:30.802Z,10.07
2023-08-12T18:28:59.078Z,8.00
2023-08-12T18:31:27.340Z,6.90
2023-08-12T18:33:55.768Z,11.97
2023-08-12T18:36:25.381Z,3.90
2023-08-12T18:38:53.658Z,5.17
2023-08-12T18:41:22.020Z,8.17
2023-08-12T18:43:50.240Z,4.73
2023-08-12T18:46:18.508Z,7.83
2023-08-12T18:48:46.827Z,4.13
2023-08-12T18:51:15.166Z,6.63
2023-08-12T18:53:45.133Z,5.70
2023-08-12T18:56:13.622Z,6.30
2023-08-12T18:58:41.900Z,5.47
2023-08-12T19:01:10.248Z,6.23
2023-08-12T19:03:38.895Z,2.93
2023-08-12T19:06:07.166Z,5.93
2023-08-12T19:08:35.464Z,4.57
2023-08-12T19:11:05.776Z,5.43
2023-08-12T19:13:34.946Z,4.83
2023-08-12T19:16:03.358Z,8.17
2023-08-12T19:18:31.744Z,7.47
2023-08-12T19:21:00.105Z,6.83
2023-08-12T19:23:28.365Z,2.97
2023-08-12T19:25:56.742Z,8.57
2023-08-12T19:28:26.745Z,5.67
2023-08-12T19:30:54.976Z,6.77
2023-08-12T19:33:23.408Z,8.30
2023-08-12T19:35:51.606Z,4.47
2023-08-12T19:38:19.933Z,4.30
2023-08-12T19:40:48.384Z,9.17
2023-08-12T19:43:16.703Z,6.37
2023-08-12T19:45:46.358Z,7.33
2023-08-12T19:48:14.668Z,5.40
2023-08-12T19:50:44.153Z,12.13
2023-08-12T19:53:12.563Z,8.50
2023-08-12T19:55:41.021Z,9.63
2023-08-12T19:58:11.376Z,5.60
2023-08-12T20:00:39.758Z,4.77
2023-08-12T20:03:09.982Z,9.90
2023-08-12T20:05:38.263Z,8.83
2023-08-12T20:08:07.358Z,7.83
2023-08-12T20:10:36.150Z,6.20
2023-08-12T20:13:04.622Z,7.07
2023-08-12T20:15:33.183Z,6.43
2023-08-12T20:18:01.614Z,9.67
2023-08-12T20:20:32.334Z,7.10
2023-08-12T20:23:05.917Z,8.53
2023-08-12T20:25:37.888Z,6.13
2023-08-12T20:28:06.799Z,5.77
2023-08-12T20:30:35.299Z,8.83
2023-08-12T20:33:04.836Z,7.33
2023-08-12T20:35:34.620Z,2.47
2023-08-12T20:38:03.046Z,8.73
2023-08-12T20:40:31.410Z,7.77
2023-08-12T20:43:00.188Z,6.17
2023-08-12T20:45:28.597Z,5.77
2023-08-12T20:47:56.931Z,11.97
2023-08-12T20:50:25.296Z,7.00
2023-08-12T20:52:57.602Z,8.83
2023-08-12T20:55:25.876Z,8.90
2023-08-12T20:57:54.324Z,8.00
2023-08-12T21:00:22.979Z,6.87
2023-08-12T21:02:51.370Z,7.80
2023-08-12T21:05:20.810Z,8.43
2023-08-12T21:07:49.061Z,7.83
2023-08-12T21:10:18.866Z,7.93
2023-08-12T21:12:47.302Z,7.63
2023-08-12T21:15:15.626Z,10.37
2023-08-12T21:17:43.892Z,9.77
2023-08-12T21:20:13.058Z,6.80
2023-08-12T21:22:42.177Z,8.53
2023-08-12T21:25:11.009Z,9.40
2023-08-12T21:27:40.857Z,6.37
2023-08-12T21:30:10.030Z,7.47
2023-08-12T21:32:38.258Z,7.67
2023-08-12T21:35:07.485Z,9.33
2023-08-12T21:37:35.686Z,5.57
2023-08-12T21:40:03.971Z,6.80
2023-08-12T21:42:32.352Z,9.00
2023-08-12T21:45:02.009Z,11.13
2023-08-12T21:47:30.367Z,10.00
2023-08-12T21:49:58.887Z,7.97
2023-08-12T21:52:27.204Z,9.30
2023-08-12T21:54:55.468Z,10.20
2023-08-12T21:57:23.694Z,10.80
2023-08-12T21:59:52.012Z,8.47
2023-08-12T22:02:26.700Z,9.07
2023-08-12T22:04:55.446Z,12.57
2023-08-12T22:07:24.043Z,5.57
2023-08-12T22:09:52.755Z,10.30
2023-08-12T22:12:21.020Z,6.63
2023-08-12T22:14:49.306Z,7.80
2023-08-12T22:17:17.877Z,8.40
2023-08-12T22:19:48.910Z,8.60
2023-08-12T22:22:20.382Z,9.90
2023-08-12T22:24:49.255Z,7.30
2023-08-12T22:27:17.652Z,7.53
2023-08-12T22:29:45.920Z,9.07
2023-08-12T22:32:14.555Z,10.83
2023-08-12T22:34:43.035Z,9.03
2023-08-12T22:37:12.673Z,4.83
2023-08-12T22:39:41.972Z,5.03
2023-08-12T22:42:10.244Z,6.80
2023-08-12T22:44:38.610Z,7.23
2023-08-12T22:47:07.594Z,7.07
2023-08-12T22:49:35.802Z,7.43
2023-08-12T22:52:04.110Z,8.37
2023-08-12T22:54:33.976Z,6.50
2023-08-12T22:57:02.435Z,11.27
2023-08-12T22:59:30.579Z,7.83
2023-08-12T23:01:59.026Z,10.83
2023-08-12T23:04:27.301Z,9.17
2023-08-12T23:06:55.556Z,6.60
2023-08-12T23:09:23.881Z,9.40
2023-08-12T23:11:53.477Z,7.50
2023-08-12T23:14:21.673Z,13.23
2023-08-12T23:16:50.152Z,11.20
2023-08-12T23:19:18.544Z,10.57
2023-08-12T23:21:46.836Z,13.40
2023-08-12T23:24:15.148Z,10.27
2023-08-12T23:26:43.429Z,8.90
2023-08-12T23:29:13.286Z,7.90
2023-08-12T23:31:41.617Z,7.80
2023-08-12T23:34:10.000Z,8.43
2023-08-12T23:36:38.267Z,10.43
2023-08-12T23:39:07.054Z,7.73
2023-08-12T23:41:35.497Z,8.20
2023-08-12T23:44:03.763Z,10.60
2023-08-12T23:46:33.433Z,6.57
2023-08-12T23:49:01.922Z,9.97
2023-08-12T23:51:30.106Z,8.40
2023-08-12T23:53:58.384Z,7.87
2023-08-12T23:56:26.721Z,11.27
2023-08-12T23:58:54.885Z,11.53
